createdAt,value
2022-11-12T08:38:37.448Z,11.60
2022-11-12T08:41:23.018Z,11.60
2022-11-12T08:44:08.834Z,11.60
2022-11-12T08:46:54.249Z,11.60
2022-11-12T08:49:42.586Z,11.70
2022-11-12T08:52:32.100Z,11.70
2022-11-12T08:55:17.702Z,11.80
2022-11-12T08:58:04.623Z,11.80
2022-11-12T09:00:50.936Z,11.80
2022-11-12T09:03:36.211Z,11.80
2022-11-12T09:06:21.928Z,11.90
2022-11-12T09:09:07.467Z,12.00
2022-11-12T09:11:52.901Z,12.00
2022-11-12T09:14:38.272Z,12.00
2022-11-12T09:17:23.850Z,12.00
2022-11-12T09:20:09.571Z,12.10
2022-11-12T09:22:59.543Z,12.20
2022-11-12T09:25:45.243Z,12.30
2022-11-12T09:28:30.838Z,12.20
2022-11-12T09:31:15.824Z,11.90
2022-11-12T09:34:01.186Z,12.10
2022-11-12T09:36:46.583Z,12.30
2022-11-12T09:39:31.925Z,12.30
2022-11-12T09:42:22.803Z,12.50
2022-11-12T09:45:19.079Z,12.50
2022-11-12T09:48:09.024Z,12.50
2022-11-12T09:51:13.433Z,12.50
2022-11-12T09:54:21.503Z,12.60
2022-11-12T09:57:11.986Z,12.60
2022-11-12T09:59:57.552Z,12.60
2022-11-12T10:03:00.934Z,12.70
2022-11-12T10:05:52.301Z,12.80
2022-11-12T10:08:55.596Z,12.80
2022-11-12T10:12:04.026Z,12.90
2022-11-12T10:15:37.250Z,12.90
2022-11-12T10:18:50.175Z,13.00
2022-11-12T10:21:53.503Z,12.70
2022-11-12T10:24:40.130Z,12.90
2022-11-12T10:27:41.644Z,13.00
2022-11-12T10:30:26.987Z,13.20
2022-11-12T10:33:15.116Z,13.30
2022-11-12T10:36:17.214Z,13.30
2022-11-12T10:39:02.823Z,13.30
2022-11-12T10:42:06.552Z,13.30
2022-11-12T10:44:54.405Z,13.40
2022-11-12T10:47:42.975Z,13.40
2022-11-12T10:50:42.709Z,13.40
2022-11-12T10:53:39.267Z,13.50
2022-11-12T10:56:29.453Z,13.50
2022-11-12T10:59:19.021Z,13.60
2022-11-12T11:02:17.121Z,13.60
2022-11-12T11:05:39.732Z,13.60
2022-11-12T11:08:46.807Z,13.60
2022-11-12T11:11:32.394Z,13.70
2022-11-12T11:14:23.885Z,13.70
2022-11-12T11:17:17.335Z,13.80
2022-11-12T11:20:04.838Z,13.80
2022-11-12T11:23:13.211Z,13.80
2022-11-12T11:26:07.676Z,13.80
2022-11-12T11:29:14.129Z,13.90
2022-11-12T11:32:24.500Z,13.90
2022-11-12T11:35:31.489Z,13.90
2022-11-12T11:38:39.634Z,13.90
2022-11-12T11:41:50.365Z,13.90
2022-11-12T11:44:47.402Z,14.00
2022-11-12T11:48:00.549Z,14.00
2022-11-12T11:50:57.982Z,13.90
2022-11-12T11:53:43.051Z,14.00
2022-11-12T11:56:42.276Z,14.00
2022-11-12T12:00:05.993Z,14.00
2022-11-12T12:02:51.073Z,14.00
2022-11-12T12:05:41.818Z,14.00
2022-11-12T12:08:59.071Z,14.00
2022-11-12T12:12:16.147Z,14.00
2022-11-12T12:15:16.475Z,14.10
2022-11-12T12:18:26.046Z,14.10
2022-11-12T12:21:19.083Z,14.10
2022-11-12T12:24:16.731Z,14.00
2022-11-12T12:27:12.498Z,14.00
2022-11-12T12:30:09.370Z,14.10
2022-11-12T12:33:02.558Z,14.10
2022-11-12T12:36:02.182Z,14.10
2022-11-12T12:39:19.482Z,14.10
2022-11-12T12:42:09.177Z,14.10
2022-11-12T12:45:05.314Z,14.10
2022-11-12T12:47:54.496Z,14.00
2022-11-12T12:50:42.329Z,14.10
2022-11-12T12:53:27.778Z,14.10
2022-11-12T12:56:13.189Z,14.10
2022-11-12T12:59:03.611Z,14.00
2022-11-12T13:02:01.505Z,13.90
2022-11-12T13:04:52.533Z,13.90
2022-11-12T13:07:49.153Z,13.80
2022-11-12T13:10:45.779Z,13.80
2022-11-12T13:13:36.400Z,13.80
2022-11-12T13:17:05.440Z,13.80
2022-11-12T13:19:53.681Z,13.80
2022-11-12T13:22:39.199Z,13.90
2022-11-12T13:25:30.511Z,13.80
2022-11-12T13:28:16.036Z,13.80
2022-11-12T13:31:03.503Z,13.90
2022-11-12T13:33:49.524Z,13.90
2022-11-12T13:36:35.035Z,13.90
2022-11-12T13:39:22.141Z,13.90
2022-11-12T13:42:35.735Z,14.00
2022-11-12T13:45:25.027Z,14.00
2022-11-12T13:48:36.278Z,14.10
2022-11-12T13:51:34.337Z,14.20
2022-11-12T13:54:39.108Z,14.20
2022-11-12T13:57:28.277Z,14.20
2022-11-12T14:00:23.704Z,14.10
2022-11-12T14:03:14.995Z,14.10
2022-11-12T14:06:06.744Z,14.00
2022-11-12T14:09:06.096Z,14.00
2022-11-12T14:11:53.906Z,14.00
2022-11-12T14:14:52.513Z,14.00
2022-11-12T14:18:02.747Z,14.00
2022-11-12T14:20:49.208Z,14.00
2022-11-12T14:23:38.070Z,13.90
2022-11-12T14:26:38.860Z,13.90
2022-11-12T14:29:24.462Z,14.00
2022-11-12T14:32:09.894Z,14.00
2022-11-12T14:34:55.129Z,14.00
2022-11-12T14:37:50.013Z,14.10
2022-11-12T14:40:57.354Z,14.10
2022-11-12T14:44:11.152Z,14.10
2022-11-12T14:46:58.931Z,14.10
2022-11-12T14:49:47.863Z,14.10
2022-11-12T14:52:37.587Z,14.10
2022-11-12T14:55:26.586Z,14.10
2022-11-12T14:58:16.637Z,14.10
2022-11-12T15:04:45.114Z,14.10
2022-11-12T15:07:33.428Z,14.10
2022-11-12T15:10:36.378Z,14.10
2022-11-12T15:13:24.863Z,14.00
2022-11-12T15:16:16.347Z,14.00
2022-11-12T15:19:26.449Z,13.90
2022-11-12T15:22:20.940Z,14.00
2022-11-12T15:25:31.794Z,13.90
2022-11-12T15:28:23.584Z,13.80
2022-11-12T15:31:18.859Z,13.80
2022-11-12T15:34:25.754Z,13.80
2022-11-12T15:37:19.802Z,13.80
2022-11-12T15:40:15.886Z,13.80
2022-11-12T15:43:02.163Z,13.70
2022-11-12T15:45:52.536Z,13.70
2022-11-12T15:48:38.119Z,13.60
2022-11-12T15:51:23.590Z,13.60
2022-11-12T15:54:08.902Z,13.50
2022-11-12T15:56:55.213Z,13.40
2022-11-12T15:59:41.167Z,13.40
2022-11-12T16:02:26.648Z,13.40
2022-11-12T16:05:17.123Z,13.40
2022-11-12T16:08:02.712Z,13.50
2022-11-12T16:10:48.688Z,13.30
2022-11-12T16:13:34.497Z,13.20
2022-11-12T16:16:20.102Z,13.20
2022-11-12T16:19:14.544Z,13.20
2022-11-12T16:22:00.964Z,13.20
2022-11-12T16:24:46.077Z,13.10
2022-11-12T16:27:32.792Z,13.10
2022-11-12T16:30:24.765Z,13.10
2022-11-12T16:33:14.631Z,13.10
2022-11-12T16:35:59.672Z,13.10
2022-11-12T16:38:46.580Z,13.20
2022-11-12T16:41:31.714Z,13.20
2022-11-12T16:44:17.161Z,13.30
2022-11-12T16:47:04.269Z,13.30
2022-11-12T16:49:49.610Z,13.20
2022-11-12T16:52:34.974Z,13.20
2022-11-12T16:55:21.385Z,13.10
2022-11-12T16:58:06.726Z,13.00
2022-11-12T17:00:52.590Z,13.00
2022-11-12T17:03:37.912Z,13.00
2022-11-12T17:06:32.164Z,12.90
2022-11-12T17:09:17.454Z,12.80
2022-11-12T17:12:02.601Z,12.80
2022-11-12T17:14:48.082Z,12.90
2022-11-12T17:17:33.237Z,12.80
2022-11-12T17:20:18.680Z,12.80
2022-11-12T17:23:04.030Z,12.90
2022-11-12T17:25:59.128Z,12.90
2022-11-12T17:28:45.036Z,12.90
2022-11-12T17:31:30.446Z,12.90
2022-11-12T17:34:18.660Z,12.80
2022-11-12T17:37:03.803Z,12.90
2022-11-12T17:39:49.286Z,12.90
2022-11-12T17:42:34.943Z,12.80
2022-11-12T17:45:20.411Z,12.80
2022-11-12T17:48:05.990Z,12.70
2022-11-12T17:50:53.498Z,12.80
2022-11-12T17:53:39.277Z,12.80
2022-11-12T17:56:24.682Z,12.90
2022-11-12T17:59:09.873Z,12.80
2022-11-12T18:01:55.285Z,12.80
2022-11-12T18:04:40.857Z,12.80
2022-11-12T18:07:26.569Z,12.80
2022-11-12T18:10:15.620Z,12.70
2022-11-12T18:13:03.900Z,12.70
2022-11-12T18:15:49.446Z,12.70
2022-11-12T18:18:34.840Z,12.60
2022-11-12T18:21:22.971Z,12.70
2022-11-12T18:24:14.378Z,12.60
2022-11-12T18:26:59.867Z,12.60
2022-11-12T18:29:46.509Z,12.50
2022-11-12T18:32:32.423Z,12.60
2022-11-12T18:35:17.524Z,12.70
2022-11-12T18:38:03.026Z,12.70
2022-11-12T18:40:48.365Z,12.60
2022-11-12T18:43:35.462Z,12.50
2022-11-12T18:46:21.326Z,12.50
2022-11-12T18:49:06.917Z,12.60
2022-11-12T18:51:52.452Z,12.60
2022-11-12T18:54:40.224Z,12.60
2022-11-12T18:57:25.585Z,12.60
2022-11-12T19:00:12.074Z,12.70
2022-11-12T19:02:57.584Z,12.60
2022-11-12T19:05:43.331Z,12.50
2022-11-12T19:08:29.055Z,12.30
2022-11-12T19:11:16.872Z,12.30
2022-11-12T19:14:02.050Z,12.30
2022-11-12T19:16:47.498Z,12.30
2022-11-12T19:19:32.915Z,12.30
2022-11-12T19:22:18.439Z,12.20
2022-11-12T19:25:03.952Z,12.20
2022-11-12T19:27:49.058Z,12.30
2022-11-12T19:30:34.452Z,12.30
2022-11-12T19:33:19.940Z,12.30
2022-11-12T19:36:06.994Z,12.30
2022-11-12T19:39:00.129Z,12.30
2022-11-12T19:41:45.769Z,12.30
2022-11-12T19:44:31.081Z,12.30
2022-11-12T19:47:16.546Z,12.30
2022-11-12T19:50:02.176Z,12.30
2022-11-12T19:52:47.403Z,12.30
2022-11-12T19:55:38.641Z,12.30
2022-11-12T19:58:25.711Z,12.40
2022-11-12T20:01:14.338Z,12.40
2022-11-12T20:04:00.006Z,12.40
2022-11-12T20:06:45.556Z,12.40
2022-11-12T20:09:31.947Z,12.40
2022-11-12T20:12:17.240Z,12.30
2022-11-12T20:15:02.818Z,12.20
2022-11-12T20:17:48.191Z,12.30
2022-11-12T20:20:33.761Z,12.20
2022-11-12T20:23:19.260Z,12.20
2022-11-12T20:26:07.341Z,12.20
2022-11-12T20:28:53.511Z,12.30
2022-11-12T20:31:41.951Z,12.30
2022-11-12T20:34:27.399Z,12.20
2022-11-12T20:37:13.055Z,12.20
2022-11-12T20:39:58.881Z,12.30
2022-11-12T20:42:45.843Z,12.30
2022-11-12T20:45:31.032Z,12.30
2022-11-12T20:48:16.502Z,12.40
2022-11-12T20:51:22.647Z,12.40
2022-11-12T20:54:10.128Z,12.40
2022-11-12T20:56:56.114Z,12.40
2022-11-12T20:59:41.538Z,12.50
2022-11-12T21:02:26.991Z,12.50
2022-11-12T21:05:15.049Z,12.50
2022-11-12T21:08:00.332Z,12.50
2022-11-12T21:10:49.710Z,12.50
2022-11-12T21:13:36.401Z,12.50
2022-11-12T21:16:21.938Z,12.40
2022-11-12T21:19:07.503Z,12.40
2022-11-12T21:21:53.348Z,12.40
2022-11-12T21:24:39.087Z,12.40
2022-11-12T21:27:26.644Z,12.40
2022-11-12T21:30:15.156Z,12.40
2022-11-12T21:33:00.672Z,12.50
2022-11-12T21:35:53.368Z,12.50
2022-11-12T21:38:41.774Z,12.50
2022-11-12T21:41:28.639Z,12.60
2022-11-12T21:44:13.730Z,12.60
2022-11-12T21:46:59.182Z,12.70
2022-11-12T21:49:44.659Z,12.70
2022-11-12T21:52:30.306Z,12.70
2022-11-12T21:55:15.337Z,12.60
2022-11-12T21:58:01.249Z,12.60
2022-11-12T22:00:46.634Z,12.60
2022-11-12T22:03:32.018Z,12.60
2022-11-12T22:06:19.233Z,12.60
2022-11-12T22:09:05.426Z,12.60
2022-11-12T22:11:50.791Z,12.60
2022-11-12T22:14:36.270Z,12.60
2022-11-12T22:17:21.664Z,12.70
2022-11-12T22:20:07.869Z,12.70
2022-11-12T22:22:53.712Z,12.80
2022-11-12T22:25:41.270Z,12.80
2022-11-12T22:28:27.199Z,12.80
2022-11-12T22:31:15.258Z,12.80
2022-11-12T22:34:02.364Z,12.80
2022-11-12T22:36:47.656Z,12.80
2022-11-12T22:39:33.076Z,12.80
2022-11-12T22:42:18.593Z,12.80
2022-11-12T22:45:04.231Z,12.90
2022-11-12T22:47:49.520Z,12.90
2022-11-12T22:50:35.069Z,12.90
2022-11-12T22:53:20.563Z,12.80
